sensor_id;sensor_type;location;lat;lon;timestamp;P1;durP1;ratioP1;P2;durP2;ratioP2
15317;SDS011;7759;52.528;13.346;2023-01-28T00:02:20;5.40;;;1.43;;
15317;SDS011;7759;52.528;13.346;2023-01-28T00:04:45;4.90;;;1.87;;
15317;SDS011;7759;52.528;13.346;2023-01-28T00:07:11;1.97;;;1.50;;
15317;SDS011;7759;52.528;13.346;2023-01-28T00:09:37;2.53;;;1.30;;
15317;SDS011;7759;52.528;13.346;2023-01-28T00:12:03;4.33;;;1.87;;
15317;SDS011;7759;52.528;13.346;2023-01-28T00:14:29;6.73;;;2.40;;
15317;SDS011;7759;52.528;13.346;2023-01-28T00:16:55;5.43;;;1.73;;
15317;SDS011;7759;52.528;13.346;2023-01-28T00:19:21;3.67;;;1.70;;
15317;SDS011;7759;52.528;13.346;2023-01-28T00:21:47;3.43;;;1.60;;
15317;SDS011;7759;52.528;13.346;2023-01-28T00:24:13;2.00;;;1.30;;
15317;SDS011;7759;52.528;13.346;2023-01-28T00:26:39;5.20;;;1.63;;
15317;SDS011;7759;52.528;13.346;2023-01-28T00:29:06;3.37;;;1.70;;
15317;SDS011;7759;52.528;13.346;2023-01-28T00:31:32;4.70;;;1.70;;
15317;SDS011;7759;52.528;13.346;2023-01-28T00:33:59;5.80;;;1.97;;
15317;SDS011;7759;52.528;13.346;2023-01-28T00:36:25;3.50;;;1.70;;
15317;SDS011;7759;52.528;13.346;2023-01-28T00:38:55;3.43;;;1.73;;
15317;SDS011;7759;52.528;13.346;2023-01-28T00:41:22;2.73;;;1.53;;
15317;SDS011;7759;52.528;13.346;2023-01-28T00:43:48;2.00;;;1.20;;
15317;SDS011;7759;52.528;13.346;2023-01-28T00:46:14;4.90;;;1.60;;
15317;SDS011;7759;52.528;13.346;2023-01-28T00:48:41;3.03;;;1.30;;
15317;SDS011;7759;52.528;13.346;2023-01-28T00:51:07;4.03;;;1.30;;
15317;SDS011;7759;52.528;13.346;2023-01-28T00:53:34;2.93;;;1.50;;
15317;SDS011;7759;52.528;13.346;2023-01-28T00:56:01;2.47;;;1.50;;
15317;SDS011;7759;52.528;13.346;2023-01-28T00:58:27;4.53;;;1.53;;
15317;SDS011;7759;52.528;13.346;2023-01-28T01:00:53;2.83;;;1.40;;
15317;SDS011;7759;52.528;13.346;2023-01-28T01:03:19;2.17;;;1.33;;
15317;SDS011;7759;52.528;13.346;2023-01-28T01:05:45;1.90;;;1.03;;
15317;SDS011;7759;52.528;13.346;2023-01-28T01:08:11;6.37;;;1.90;;
15317;SDS011;7759;52.528;13.346;2023-01-28T01:10:38;3.70;;;1.17;;
15317;SDS011;7759;52.528;13.346;2023-01-28T01:13:04;1.97;;;1.20;;
15317;SDS011;7759;52.528;13.346;2023-01-28T01:15:30;3.63;;;1.80;;
15317;SDS011;7759;52.528;13.346;2023-01-28T01:17:57;3.40;;;1.10;;
15317;SDS011;7759;52.528;13.346;2023-01-28T01:20:24;3.10;;;1.20;;
15317;SDS011;7759;52.528;13.346;2023-01-28T01:22:50;2.80;;;1.43;;
15317;SDS011;7759;52.528;13.346;2023-01-28T01:25:16;2.07;;;1.37;;
15317;SDS011;7759;52.528;13.346;2023-01-28T01:27:43;2.70;;;1.43;;
15317;SDS011;7759;52.528;13.346;2023-01-28T01:30:12;5.53;;;1.40;;
15317;SDS011;7759;52.528;13.346;2023-01-28T01:32:38;3.97;;;1.30;;
15317;SDS011;7759;52.528;13.346;2023-01-28T01:35:04;4.80;;;1.67;;
15317;SDS011;7759;52.528;13.346;2023-01-28T01:37:31;3.47;;;1.70;;
15317;SDS011;7759;52.528;13.346;2023-01-28T01:39:57;2.77;;;1.43;;
15317;SDS011;7759;52.528;13.346;2023-01-28T01:42:23;2.73;;;1.73;;
15317;SDS011;7759;52.528;13.346;2023-01-28T01:47:23;4.23;;;1.80;;
15317;SDS011;7759;52.528;13.346;2023-01-28T01:49:50;3.37;;;1.40;;
15317;SDS011;7759;52.528;13.346;2023-01-28T01:52:17;2.50;;;1.47;;
15317;SDS011;7759;52.528;13.346;2023-01-28T01:54:45;4.93;;;1.53;;
15317;SDS011;7759;52.528;13.346;2023-01-28T01:57:13;4.37;;;1.50;;
15317;SDS011;7759;52.528;13.346;2023-01-28T01:59:40;3.37;;;1.77;;
15317;SDS011;7759;52.528;13.346;2023-01-28T02:02:07;2.90;;;1.43;;
15317;SDS011;7759;52.528;13.346;2023-01-28T02:04:35;3.40;;;1.63;;
15317;SDS011;7759;52.528;13.346;2023-01-28T02:07:02;3.93;;;1.60;;
15317;SDS011;7759;52.528;13.346;2023-01-28T02:09:29;3.23;;;1.13;;
15317;SDS011;7759;52.528;13.346;2023-01-28T02:11:56;2.30;;;1.10;;
15317;SDS011;7759;52.528;13.346;2023-01-28T02:14:23;3.67;;;1.30;;
15317;SDS011;7759;52.528;13.346;2023-01-28T02:16:50;2.03;;;1.20;;
15317;SDS011;7759;52.528;13.346;2023-01-28T02:19:16;3.47;;;1.00;;
15317;SDS011;7759;52.528;13.346;2023-01-28T02:21:52;3.37;;;1.27;;
15317;SDS011;7759;52.528;13.346;2023-01-28T02:26:54;2.93;;;1.27;;
15317;SDS011;7759;52.528;13.346;2023-01-28T02:31:57;3.17;;;1.53;;
15317;SDS011;7759;52.528;13.346;2023-01-28T02:36:57;2.90;;;1.63;;
15317;SDS011;7759;52.528;13.346;2023-01-28T02:39:28;3.00;;;1.17;;
15317;SDS011;7759;52.528;13.346;2023-01-28T02:41:55;3.07;;;1.60;;
15317;SDS011;7759;52.528;13.346;2023-01-28T02:44:22;3.93;;;1.80;;
15317;SDS011;7759;52.528;13.346;2023-01-28T02:46:50;8.97;;;1.80;;
15317;SDS011;7759;52.528;13.346;2023-01-28T02:49:37;4.20;;;1.53;;
15317;SDS011;7759;52.528;13.346;2023-01-28T02:52:10;6.50;;;1.40;;
15317;SDS011;7759;52.528;13.346;2023-01-28T02:59:56;3.90;;;1.37;;
15317;SDS011;7759;52.528;13.346;2023-01-28T03:02:30;7.47;;;1.60;;
15317;SDS011;7759;52.528;13.346;2023-01-28T03:05:05;2.50;;;1.03;;
15317;SDS011;7759;52.528;13.346;2023-01-28T03:07:32;2.17;;;1.30;;
15317;SDS011;7759;52.528;13.346;2023-01-28T03:10:00;2.20;;;1.37;;
15317;SDS011;7759;52.528;13.346;2023-01-28T03:12:28;2.40;;;1.10;;
15317;SDS011;7759;52.528;13.346;2023-01-28T03:15:14;1.97;;;1.20;;
15317;SDS011;7759;52.528;13.346;2023-01-28T03:18:00;2.57;;;1.00;;
15317;SDS011;7759;52.528;13.346;2023-01-28T03:20:47;3.47;;;1.30;;
15317;SDS011;7759;52.528;13.346;2023-01-28T03:26:37;2.73;;;1.00;;
15317;SDS011;7759;52.528;13.346;2023-01-28T03:29:23;2.23;;;0.93;;
15317;SDS011;7759;52.528;13.346;2023-01-28T03:32:09;3.37;;;1.33;;
15317;SDS011;7759;52.528;13.346;2023-01-28T03:34:54;2.60;;;1.43;;
15317;SDS011;7759;52.528;13.346;2023-01-28T03:37:39;2.60;;;1.30;;
15317;SDS011;7759;52.528;13.346;2023-01-28T03:40:05;2.10;;;1.20;;
15317;SDS011;7759;52.528;13.346;2023-01-28T03:42:32;3.30;;;1.30;;
15317;SDS011;7759;52.528;13.346;2023-01-28T03:44:58;2.53;;;1.23;;
15317;SDS011;7759;52.528;13.346;2023-01-28T03:47:28;1.50;;;1.07;;
15317;SDS011;7759;52.528;13.346;2023-01-28T03:49:55;2.40;;;1.07;;
15317;SDS011;7759;52.528;13.346;2023-01-28T03:52:31;1.47;;;1.17;;
15317;SDS011;7759;52.528;13.346;2023-01-28T03:54:57;1.80;;;1.03;;
15317;SDS011;7759;52.528;13.346;2023-01-28T03:57:24;1.47;;;1.00;;
15317;SDS011;7759;52.528;13.346;2023-01-28T03:59:50;3.43;;;0.80;;
15317;SDS011;7759;52.528;13.346;2023-01-28T04:02:17;1.20;;;0.90;;
15317;SDS011;7759;52.528;13.346;2023-01-28T04:04:43;1.17;;;0.90;;
15317;SDS011;7759;52.528;13.346;2023-01-28T04:07:10;3.50;;;1.17;;
15317;SDS011;7759;52.528;13.346;2023-01-28T04:09:38;2.60;;;1.10;;
15317;SDS011;7759;52.528;13.346;2023-01-28T04:12:04;1.30;;;1.03;;
15317;SDS011;7759;52.528;13.346;2023-01-28T04:14:30;1.50;;;1.00;;
15317;SDS011;7759;52.528;13.346;2023-01-28T04:16:56;2.40;;;0.97;;
15317;SDS011;7759;52.528;13.346;2023-01-28T04:19:22;2.10;;;0.93;;
15317;SDS011;7759;52.528;13.346;2023-01-28T04:21:48;1.73;;;1.03;;
15317;SDS011;7759;52.528;13.346;2023-01-28T04:24:15;1.33;;;0.93;;
15317;SDS011;7759;52.528;13.346;2023-01-28T04:26:41;1.70;;;1.00;;
15317;SDS011;7759;52.528;13.346;2023-01-28T04:29:06;1.77;;;1.03;;
15317;SDS011;7759;52.528;13.346;2023-01-28T04:31:33;1.60;;;1.00;;
15317;SDS011;7759;52.528;13.346;2023-01-28T04:33:59;2.40;;;0.93;;
15317;SDS011;7759;52.528;13.346;2023-01-28T04:36:25;1.20;;;0.90;;
15317;SDS011;7759;52.528;13.346;2023-01-28T04:38:51;1.20;;;1.10;;
15317;SDS011;7759;52.528;13.346;2023-01-28T04:41:17;2.83;;;1.03;;
15317;SDS011;7759;52.528;13.346;2023-01-28T04:43:43;2.77;;;1.20;;
15317;SDS011;7759;52.528;13.346;2023-01-28T04:46:09;1.73;;;0.83;;
15317;SDS011;7759;52.528;13.346;2023-01-28T04:48:35;2.37;;;1.10;;
15317;SDS011;7759;52.528;13.346;2023-01-28T04:51:01;3.47;;;0.93;;
15317;SDS011;7759;52.528;13.346;2023-01-28T04:53:28;3.17;;;1.50;;
15317;SDS011;7759;52.528;13.346;2023-01-28T04:55:54;2.33;;;1.10;;
15317;SDS011;7759;52.528;13.346;2023-01-28T04:58:20;1.20;;;1.00;;
15317;SDS011;7759;52.528;13.346;2023-01-28T05:00:46;3.93;;;1.20;;
15317;SDS011;7759;52.528;13.346;2023-01-28T05:03:12;2.27;;;0.90;;
15317;SDS011;7759;52.528;13.346;2023-01-28T05:05:37;1.53;;;0.90;;
15317;SDS011;7759;52.528;13.346;2023-01-28T05:08:03;1.60;;;0.90;;
15317;SDS011;7759;52.528;13.346;2023-01-28T05:10:29;2.73;;;1.20;;
15317;SDS011;7759;52.528;13.346;2023-01-28T05:12:55;8.10;;;1.13;;
15317;SDS011;7759;52.528;13.346;2023-01-28T05:15:21;3.87;;;1.30;;
15317;SDS011;7759;52.528;13.346;2023-01-28T05:17:47;1.60;;;1.03;;
15317;SDS011;7759;52.528;13.346;2023-01-28T05:20:13;3.97;;;1.70;;
15317;SDS011;7759;52.528;13.346;2023-01-28T05:22:39;1.80;;;1.10;;
15317;SDS011;7759;52.528;13.346;2023-01-28T05:25:06;1.37;;;1.20;;
15317;SDS011;7759;52.528;13.346;2023-01-28T05:27:32;1.63;;;1.10;;
15317;SDS011;7759;52.528;13.346;2023-01-28T05:29:58;3.30;;;1.73;;
15317;SDS011;7759;52.528;13.346;2023-01-28T05:32:24;2.97;;;1.40;;
15317;SDS011;7759;52.528;13.346;2023-01-28T05:34:50;2.67;;;1.70;;
15317;SDS011;7759;52.528;13.346;2023-01-28T05:37:16;1.97;;;1.63;;
15317;SDS011;7759;52.528;13.346;2023-01-28T05:39:42;6.03;;;2.90;;
15317;SDS011;7759;52.528;13.346;2023-01-28T05:42:08;7.27;;;3.00;;
15317;SDS011;7759;52.528;13.346;2023-01-28T05:44:34;5.40;;;2.43;;
15317;SDS011;7759;52.528;13.346;2023-01-28T05:47:01;4.87;;;2.03;;
15317;SDS011;7759;52.528;13.346;2023-01-28T05:49:27;3.53;;;2.10;;
15317;SDS011;7759;52.528;13.346;2023-01-28T05:51:53;3.23;;;2.00;;
15317;SDS011;7759;52.528;13.346;2023-01-28T05:54:19;3.73;;;1.87;;
15317;SDS011;7759;52.528;13.346;2023-01-28T05:56:45;3.47;;;1.97;;
15317;SDS011;7759;52.528;13.346;2023-01-28T05:59:12;5.47;;;2.30;;
15317;SDS011;7759;52.528;13.346;2023-01-28T06:01:38;2.93;;;2.10;;
15317;SDS011;7759;52.528;13.346;2023-01-28T06:04:04;10.87;;;2.77;;
15317;SDS011;7759;52.528;13.346;2023-01-28T06:06:30;6.37;;;2.40;;
15317;SDS011;7759;52.528;13.346;2023-01-28T06:08:56;5.57;;;3.27;;
15317;SDS011;7759;52.528;13.346;2023-01-28T06:11:22;8.30;;;3.40;;
15317;SDS011;7759;52.528;13.346;2023-01-28T06:13:48;5.37;;;2.80;;
15317;SDS011;7759;52.528;13.346;2023-01-28T06:16:13;7.80;;;3.67;;
15317;SDS011;7759;52.528;13.346;2023-01-28T06:18:39;8.83;;;3.80;;
15317;SDS011;7759;52.528;13.346;2023-01-28T06:21:05;8.23;;;3.00;;
15317;SDS011;7759;52.528;13.346;2023-01-28T06:23:31;7.07;;;3.53;;
15317;SDS011;7759;52.528;13.346;2023-01-28T06:25:57;2.90;;;1.83;;
15317;SDS011;7759;52.528;13.346;2023-01-28T06:28:23;3.53;;;2.00;;
15317;SDS011;7759;52.528;13.346;2023-01-28T06:30:50;3.27;;;2.13;;
15317;SDS011;7759;52.528;13.346;2023-01-28T06:33:17;5.77;;;2.50;;
15317;SDS011;7759;52.528;13.346;2023-01-28T06:35:43;6.77;;;2.30;;
15317;SDS011;7759;52.528;13.346;2023-01-28T06:38:09;3.13;;;1.63;;
15317;SDS011;7759;52.528;13.346;2023-01-28T06:40:35;2.67;;;1.40;;
15317;SDS011;7759;52.528;13.346;2023-01-28T06:43:01;2.80;;;1.70;;
15317;SDS011;7759;52.528;13.346;2023-01-28T06:45:27;2.60;;;1.80;;
15317;SDS011;7759;52.528;13.346;2023-01-28T06:47:53;4.60;;;1.57;;
15317;SDS011;7759;52.528;13.346;2023-01-28T06:50:18;6.27;;;1.83;;
15317;SDS011;7759;52.528;13.346;2023-01-28T06:52:44;4.20;;;2.10;;
15317;SDS011;7759;52.528;13.346;2023-01-28T06:55:10;3.13;;;1.63;;
15317;SDS011;7759;52.528;13.346;2023-01-28T06:57:39;2.67;;;1.30;;
15317;SDS011;7759;52.528;13.346;2023-01-28T07:00:06;3.67;;;2.00;;
15317;SDS011;7759;52.528;13.346;2023-01-28T07:02:34;2.17;;;1.23;;
15317;SDS011;7759;52.528;13.346;2023-01-28T07:05:00;3.10;;;1.77;;
15317;SDS011;7759;52.528;13.346;2023-01-28T07:07:26;3.60;;;1.50;;
15317;SDS011;7759;52.528;13.346;2023-01-28T07:09:52;2.43;;;1.40;;
15317;SDS011;7759;52.528;13.346;2023-01-28T07:12:18;3.47;;;1.40;;
15317;SDS011;7759;52.528;13.346;2023-01-28T07:14:44;3.37;;;2.03;;
15317;SDS011;7759;52.528;13.346;2023-01-28T07:17:10;5.10;;;1.57;;
15317;SDS011;7759;52.528;13.346;2023-01-28T07:19:35;3.10;;;1.37;;
15317;SDS011;7759;52.528;13.346;2023-01-28T07:22:01;1.23;;;0.97;;
15317;SDS011;7759;52.528;13.346;2023-01-28T07:24:28;2.53;;;1.23;;
15317;SDS011;7759;52.528;13.346;2023-01-28T07:26:54;2.43;;;1.30;;
15317;SDS011;7759;52.528;13.346;2023-01-28T07:29:20;1.07;;;0.80;;
15317;SDS011;7759;52.528;13.346;2023-01-28T07:31:46;1.47;;;0.80;;
15317;SDS011;7759;52.528;13.346;2023-01-28T07:34:12;0.70;;;0.60;;
15317;SDS011;7759;52.528;13.346;2023-01-28T07:36:38;2.07;;;1.00;;
15317;SDS011;7759;52.528;13.346;2023-01-28T07:39:04;2.17;;;1.20;;
15317;SDS011;7759;52.528;13.346;2023-01-28T07:41:31;2.47;;;1.27;;
15317;SDS011;7759;52.528;13.346;2023-01-28T07:43:57;1.77;;;0.93;;
15317;SDS011;7759;52.528;13.346;2023-01-28T07:46:23;1.40;;;0.90;;
15317;SDS011;7759;52.528;13.346;2023-01-28T07:48:49;3.60;;;1.20;;
15317;SDS011;7759;52.528;13.346;2023-01-28T07:51:15;3.57;;;1.13;;
15317;SDS011;7759;52.528;13.346;2023-01-28T07:53:41;2.00;;;1.20;;
15317;SDS011;7759;52.528;13.346;2023-01-28T07:56:07;2.50;;;1.20;;
15317;SDS011;7759;52.528;13.346;2023-01-28T07:58:33;1.40;;;0.80;;
15317;SDS011;7759;52.528;13.346;2023-01-28T08:00:59;1.87;;;1.03;;
15317;SDS011;7759;52.528;13.346;2023-01-28T08:03:25;2.37;;;1.20;;
15317;SDS011;7759;52.528;13.346;2023-01-28T08:05:52;1.27;;;0.80;;
15317;SDS011;7759;52.528;13.346;2023-01-28T08:08:19;2.73;;;0.90;;
15317;SDS011;7759;52.528;13.346;2023-01-28T08:10:45;3.57;;;1.00;;
15317;SDS011;7759;52.528;13.346;2023-01-28T08:13:12;2.13;;;1.13;;
15317;SDS011;7759;52.528;13.346;2023-01-28T08:15:38;2.43;;;1.10;;
15317;SDS011;7759;52.528;13.346;2023-01-28T08:18:05;1.73;;;1.27;;
15317;SDS011;7759;52.528;13.346;2023-01-28T08:20:32;5.03;;;0.93;;
15317;SDS011;7759;52.528;13.346;2023-01-28T08:23:07;3.37;;;1.10;;
15317;SDS011;7759;52.528;13.346;2023-01-28T08:25:34;2.33;;;1.40;;
15317;SDS011;7759;52.528;13.346;2023-01-28T08:28:00;0.70;;;0.70;;
15317;SDS011;7759;52.528;13.346;2023-01-28T08:30:26;0.80;;;0.77;;
15317;SDS011;7759;52.528;13.346;2023-01-28T08:32:54;3.37;;;1.00;;
15317;SDS011;7759;52.528;13.346;2023-01-28T08:35:21;1.80;;;1.27;;
15317;SDS011;7759;52.528;13.346;2023-01-28T08:37:47;1.50;;;1.23;;
15317;SDS011;7759;52.528;13.346;2023-01-28T08:40:12;3.77;;;1.10;;
15317;SDS011;7759;52.528;13.346;2023-01-28T08:42:38;0.97;;;0.60;;
15317;SDS011;7759;52.528;13.346;2023-01-28T08:45:05;0.90;;;0.60;;
15317;SDS011;7759;52.528;13.346;2023-01-28T08:47:31;4.90;;;1.00;;
15317;SDS011;7759;52.528;13.346;2023-01-28T08:49:57;2.20;;;1.20;;
15317;SDS011;7759;52.528;13.346;2023-01-28T08:52:22;3.43;;;1.43;;
15317;SDS011;7759;52.528;13.346;2023-01-28T08:54:48;2.97;;;1.13;;
15317;SDS011;7759;52.528;13.346;2023-01-28T08:57:14;2.60;;;1.20;;
15317;SDS011;7759;52.528;13.346;2023-01-28T08:59:40;4.00;;;1.03;;
15317;SDS011;7759;52.528;13.346;2023-01-28T09:02:11;5.73;;;0.80;;
15317;SDS011;7759;52.528;13.346;2023-01-28T09:04:38;2.40;;;1.17;;
15317;SDS011;7759;52.528;13.346;2023-01-28T09:07:04;2.77;;;0.97;;
15317;SDS011;7759;52.528;13.346;2023-01-28T09:09:30;1.40;;;0.90;;
15317;SDS011;7759;52.528;13.346;2023-01-28T09:11:56;2.10;;;1.07;;
15317;SDS011;7759;52.528;13.346;2023-01-28T09:14:22;5.77;;;2.13;;
15317;SDS011;7759;52.528;13.346;2023-01-28T09:16:47;2.63;;;1.00;;
15317;SDS011;7759;52.528;13.346;2023-01-28T09:19:13;1.37;;;0.83;;
15317;SDS011;7759;52.528;13.346;2023-01-28T09:21:39;0.90;;;0.50;;
15317;SDS011;7759;52.528;13.346;2023-01-28T09:24:09;1.23;;;0.93;;
15317;SDS011;7759;52.528;13.346;2023-01-28T09:26:35;2.07;;;0.80;;
15317;SDS011;7759;52.528;13.346;2023-01-28T09:29:02;2.03;;;0.50;;
15317;SDS011;7759;52.528;13.346;2023-01-28T09:31:28;1.73;;;1.10;;
15317;SDS011;7759;52.528;13.346;2023-01-28T09:33:54;2.50;;;1.03;;
15317;SDS011;7759;52.528;13.346;2023-01-28T09:36:21;1.63;;;1.03;;
15317;SDS011;7759;52.528;13.346;2023-01-28T09:38:47;1.23;;;0.50;;
15317;SDS011;7759;52.528;13.346;2023-01-28T09:41:22;1.70;;;0.50;;
15317;SDS011;7759;52.528;13.346;2023-01-28T09:43:52;0.90;;;0.60;;
15317;SDS011;7759;52.528;13.346;2023-01-28T09:46:21;5.53;;;1.93;;
15317;SDS011;7759;52.528;13.346;2023-01-28T09:48:48;1.07;;;0.67;;
15317;SDS011;7759;52.528;13.346;2023-01-28T09:51:29;3.03;;;0.80;;
15317;SDS011;7759;52.528;13.346;2023-01-28T09:53:56;0.77;;;0.67;;
15317;SDS011;7759;52.528;13.346;2023-01-28T09:56:24;2.23;;;0.70;;
15317;SDS011;7759;52.528;13.346;2023-01-28T09:58:51;8.40;;;3.63;;
15317;SDS011;7759;52.528;13.346;2023-01-28T10:06:38;3.77;;;0.83;;
15317;SDS011;7759;52.528;13.346;2023-01-28T10:09:17;1.37;;;0.97;;
15317;SDS011;7759;52.528;13.346;2023-01-28T10:11:53;2.80;;;0.80;;
15317;SDS011;7759;52.528;13.346;2023-01-28T10:17:12;0.30;;;0.30;;
15317;SDS011;7759;52.528;13.346;2023-01-28T10:20:24;0.70;;;0.50;;
15317;SDS011;7759;52.528;13.346;2023-01-28T10:22:33;5.70;;;0.53;;
15317;SDS011;7759;52.528;13.346;2023-01-28T10:25:01;2.73;;;0.90;;
15317;SDS011;7759;52.528;13.346;2023-01-28T10:27:31;1.50;;;0.90;;
15317;SDS011;7759;52.528;13.346;2023-01-28T10:29:58;1.07;;;0.80;;
15317;SDS011;7759;52.528;13.346;2023-01-28T10:32:28;1.30;;;0.37;;
15317;SDS011;7759;52.528;13.346;2023-01-28T10:34:55;0.87;;;0.50;;
15317;SDS011;7759;52.528;13.346;2023-01-28T10:37:24;0.50;;;0.50;;
15317;SDS011;7759;52.528;13.346;2023-01-28T10:39:51;0.57;;;0.50;;
15317;SDS011;7759;52.528;13.346;2023-01-28T10:42:26;0.80;;;0.70;;
15317;SDS011;7759;52.528;13.346;2023-01-28T10:44:54;1.37;;;0.57;;
15317;SDS011;7759;52.528;13.346;2023-01-28T10:47:30;1.70;;;0.50;;
15317;SDS011;7759;52.528;13.346;2023-01-28T10:49:58;0.87;;;0.50;;
15317;SDS011;7759;52.528;13.346;2023-01-28T10:52:24;1.20;;;0.70;;
15317;SDS011;7759;52.528;13.346;2023-01-28T10:54:59;0.83;;;0.57;;
15317;SDS011;7759;52.528;13.346;2023-01-28T10:57:25;3.63;;;0.80;;
15317;SDS011;7759;52.528;13.346;2023-01-28T10:59:51;0.90;;;0.60;;
15317;SDS011;7759;52.528;13.346;2023-01-28T11:02:23;2.80;;;0.90;;
15317;SDS011;7759;52.528;13.346;2023-01-28T11:07:34;1.03;;;0.57;;
15317;SDS011;7759;52.528;13.346;2023-01-28T11:10:00;3.33;;;1.27;;
15317;SDS011;7759;52.528;13.346;2023-01-28T11:12:27;1.50;;;0.70;;
15317;SDS011;7759;52.528;13.346;2023-01-28T11:15:01;1.00;;;0.60;;
15317;SDS011;7759;52.528;13.346;2023-01-28T11:17:28;0.87;;;0.70;;
15317;SDS011;7759;52.528;13.346;2023-01-28T11:19:56;1.13;;;0.73;;
15317;SDS011;7759;52.528;13.346;2023-01-28T11:22:29;2.73;;;0.67;;
15317;SDS011;7759;52.528;13.346;2023-01-28T11:24:57;1.83;;;0.70;;
15317;SDS011;7759;52.528;13.346;2023-01-28T11:27:26;1.10;;;0.47;;
15317;SDS011;7759;52.528;13.346;2023-01-28T11:29:54;1.20;;;0.70;;
15317;SDS011;7759;52.528;13.346;2023-01-28T11:32:23;2.17;;;0.60;;
15317;SDS011;7759;52.528;13.346;2023-01-28T11:34:50;0.80;;;0.60;;
15317;SDS011;7759;52.528;13.346;2023-01-28T11:37:16;1.80;;;0.70;;
15317;SDS011;7759;52.528;13.346;2023-01-28T11:39:45;1.23;;;0.80;;
15317;SDS011;7759;52.528;13.346;2023-01-28T11:42:18;1.20;;;0.80;;
15317;SDS011;7759;52.528;13.346;2023-01-28T11:44:44;2.00;;;0.80;;
15317;SDS011;7759;52.528;13.346;2023-01-28T11:49:59;1.50;;;0.70;;
15317;SDS011;7759;52.528;13.346;2023-01-28T11:57:45;0.53;;;0.53;;
15317;SDS011;7759;52.528;13.346;2023-01-28T12:00:25;1.93;;;1.00;;
15317;SDS011;7759;52.528;13.346;2023-01-28T12:05:50;3.07;;;0.67;;
15317;SDS011;7759;52.528;13.346;2023-01-28T12:08:33;1.57;;;0.70;;
15317;SDS011;7759;52.528;13.346;2023-01-28T12:11:12;4.47;;;0.83;;
15317;SDS011;7759;52.528;13.346;2023-01-28T12:13:47;1.07;;;0.97;;
15317;SDS011;7759;52.528;13.346;2023-01-28T12:16:17;1.00;;;0.80;;
15317;SDS011;7759;52.528;13.346;2023-01-28T12:18:59;2.57;;;0.93;;
15317;SDS011;7759;52.528;13.346;2023-01-28T12:21:41;2.70;;;1.30;;
15317;SDS011;7759;52.528;13.346;2023-01-28T12:24:17;1.27;;;0.90;;
15317;SDS011;7759;52.528;13.346;2023-01-28T12:26:56;3.23;;;0.70;;
15317;SDS011;7759;52.528;13.346;2023-01-28T12:34:28;0.90;;;0.50;;
15317;SDS011;7759;52.528;13.346;2023-01-28T12:36:59;1.50;;;0.67;;
15317;SDS011;7759;52.528;13.346;2023-01-28T12:42:03;4.20;;;0.57;;
15317;SDS011;7759;52.528;13.346;2023-01-28T12:44:31;2.80;;;1.27;;
15317;SDS011;7759;52.528;13.346;2023-01-28T12:47:01;0.83;;;0.80;;
15317;SDS011;7759;52.528;13.346;2023-01-28T12:49:29;2.73;;;1.00;;
15317;SDS011;7759;52.528;13.346;2023-01-28T12:54:45;1.10;;;0.67;;
15317;SDS011;7759;52.528;13.346;2023-01-28T12:57:21;2.13;;;1.30;;
15317;SDS011;7759;52.528;13.346;2023-01-28T12:59:48;1.80;;;0.70;;
15317;SDS011;7759;52.528;13.346;2023-01-28T13:02:20;1.17;;;0.80;;
15317;SDS011;7759;52.528;13.346;2023-01-28T13:05:01;1.07;;;0.60;;
15317;SDS011;7759;52.528;13.346;2023-01-28T13:07:33;1.57;;;0.80;;
15317;SDS011;7759;52.528;13.346;2023-01-28T13:10:11;1.77;;;0.73;;
15317;SDS011;7759;52.528;13.346;2023-01-28T13:12:38;0.77;;;0.70;;
15317;SDS011;7759;52.528;13.346;2023-01-28T13:15:09;0.53;;;0.50;;
15317;SDS011;7759;52.528;13.346;2023-01-28T13:17:36;1.10;;;0.70;;
15317;SDS011;7759;52.528;13.346;2023-01-28T13:20:12;1.10;;;0.60;;
15317;SDS011;7759;52.528;13.346;2023-01-28T13:22:38;4.77;;;1.03;;
15317;SDS011;7759;52.528;13.346;2023-01-28T13:25:20;1.63;;;0.70;;
15317;SDS011;7759;52.528;13.346;2023-01-28T13:27:54;2.93;;;1.60;;
15317;SDS011;7759;52.528;13.346;2023-01-28T13:30:25;1.73;;;0.77;;
15317;SDS011;7759;52.528;13.346;2023-01-28T13:33:01;1.03;;;0.70;;
15317;SDS011;7759;52.528;13.346;2023-01-28T13:35:34;1.30;;;0.77;;
15317;SDS011;7759;52.528;13.346;2023-01-28T13:38:15;1.03;;;0.50;;
15317;SDS011;7759;52.528;13.346;2023-01-28T13:40:41;2.37;;;0.70;;
15317;SDS011;7759;52.528;13.346;2023-01-28T13:43:24;1.03;;;0.80;;
15317;SDS011;7759;52.528;13.346;2023-01-28T13:45:55;0.90;;;0.53;;
15317;SDS011;7759;52.528;13.346;2023-01-28T13:48:38;1.17;;;0.50;;
15317;SDS011;7759;52.528;13.346;2023-01-28T13:51:19;1.20;;;0.70;;
15317;SDS011;7759;52.528;13.346;2023-01-28T13:56:39;1.47;;;0.50;;
15317;SDS011;7759;52.528;13.346;2023-01-28T13:59:13;0.60;;;0.60;;
15317;SDS011;7759;52.528;13.346;2023-01-28T14:02:07;0.50;;;0.37;;
15317;SDS011;7759;52.528;13.346;2023-01-28T14:04:41;1.17;;;0.60;;
15317;SDS011;7759;52.528;13.346;2023-01-28T14:07:21;1.43;;;0.70;;
15317;SDS011;7759;52.528;13.346;2023-01-28T14:09:57;1.23;;;0.53;;
15317;SDS011;7759;52.528;13.346;2023-01-28T14:15:48;0.87;;;0.63;;
15317;SDS011;7759;52.528;13.346;2023-01-28T14:18:33;0.73;;;0.40;;
15317;SDS011;7759;52.528;13.346;2023-01-28T14:21:00;2.40;;;0.53;;
15317;SDS011;7759;52.528;13.346;2023-01-28T14:23:27;3.07;;;0.40;;
15317;SDS011;7759;52.528;13.346;2023-01-28T14:26:14;2.27;;;0.50;;
15317;SDS011;7759;52.528;13.346;2023-01-28T14:28:47;1.30;;;0.50;;
15317;SDS011;7759;52.528;13.346;2023-01-28T14:31:15;1.40;;;0.60;;
15317;SDS011;7759;52.528;13.346;2023-01-28T14:33:42;0.50;;;0.40;;
15317;SDS011;7759;52.528;13.346;2023-01-28T14:36:09;0.70;;;0.60;;
15317;SDS011;7759;52.528;13.346;2023-01-28T14:38:37;0.53;;;0.50;;
15317;SDS011;7759;52.528;13.346;2023-01-28T14:41:03;0.67;;;0.67;;
15317;SDS011;7759;52.528;13.346;2023-01-28T14:43:30;0.90;;;0.67;;
15317;SDS011;7759;52.528;13.346;2023-01-28T14:46:00;2.07;;;0.90;;
15317;SDS011;7759;52.528;13.346;2023-01-28T14:58:34;2.53;;;1.53;;
15317;SDS011;7759;52.528;13.346;2023-01-28T15:01:01;1.13;;;0.90;;
15317;SDS011;7759;52.528;13.346;2023-01-28T15:03:27;4.17;;;1.83;;
15317;SDS011;7759;52.528;13.346;2023-01-28T15:06:11;5.80;;;1.90;;
15317;SDS011;7759;52.528;13.346;2023-01-28T15:08:37;2.30;;;1.17;;
15317;SDS011;7759;52.528;13.346;2023-01-28T15:11:04;0.87;;;0.50;;
15317;SDS011;7759;52.528;13.346;2023-01-28T15:13:32;7.63;;;1.80;;
15317;SDS011;7759;52.528;13.346;2023-01-28T15:16:00;1.90;;;0.67;;
15317;SDS011;7759;52.528;13.346;2023-01-28T15:18:31;2.13;;;0.83;;
15317;SDS011;7759;52.528;13.346;2023-01-28T15:20:58;2.53;;;0.70;;
15317;SDS011;7759;52.528;13.346;2023-01-28T15:23:47;0.87;;;0.53;;
15317;SDS011;7759;52.528;13.346;2023-01-28T15:26:13;1.97;;;0.90;;
15317;SDS011;7759;52.528;13.346;2023-01-28T15:28:41;0.70;;;0.50;;
15317;SDS011;7759;52.528;13.346;2023-01-28T15:31:16;1.10;;;0.90;;
15317;SDS011;7759;52.528;13.346;2023-01-28T15:33:43;2.23;;;1.20;;
15317;SDS011;7759;52.528;13.346;2023-01-28T15:36:09;1.00;;;0.80;;
15317;SDS011;7759;52.528;13.346;2023-01-28T15:38:35;2.03;;;0.83;;
15317;SDS011;7759;52.528;13.346;2023-01-28T15:41:01;1.83;;;0.90;;
15317;SDS011;7759;52.528;13.346;2023-01-28T15:43:28;4.77;;;1.00;;
15317;SDS011;7759;52.528;13.346;2023-01-28T15:45:55;1.73;;;1.03;;
15317;SDS011;7759;52.528;13.346;2023-01-28T15:48:22;1.17;;;0.80;;
15317;SDS011;7759;52.528;13.346;2023-01-28T15:50:57;1.00;;;0.70;;
15317;SDS011;7759;52.528;13.346;2023-01-28T15:53:23;0.70;;;0.70;;
15317;SDS011;7759;52.528;13.346;2023-01-28T15:55:49;0.70;;;0.60;;
15317;SDS011;7759;52.528;13.346;2023-01-28T15:58:17;2.40;;;1.13;;
15317;SDS011;7759;52.528;13.346;2023-01-28T16:00:43;1.00;;;0.70;;
15317;SDS011;7759;52.528;13.346;2023-01-28T16:03:09;1.00;;;0.73;;
15317;SDS011;7759;52.528;13.346;2023-01-28T16:05:42;3.47;;;1.10;;